Search for airport 
image banner adimage banner ad
image banner ad

SVRD - El Remanso Del Cinaruco Pedro Camejo

Located in Apure, Venezuela

ICAO - , IATA -

Data provided by Airmate  

General information

Coordinates: N6°34'3" W67°25'27"
Elevation is feet MSL.
 
Rated:
View ratings: [VIEW]


View others Airports in Apure

Operational data

Open for public use
Current time UTC:
Current local time:
Weather at : SKPC - Puerto Carreno-German Olano ( 43 km )
METAR: SKPC 032000Z 16003KT 6000 -DZ SCT013 BKN070 24/23 A2992
View NOTAMs / SUP AIP / TFR affecting this airport [VIEW]
Communications frequencies: [VIEW]

Runways:

RWY identifierQFULength (ft)Width (ft)SurfaceLDA (ft)
0600
2500

Airport contact information

Address: Apure Venezuela

Satellite view of SVRD